Powell Point, Texas
Current Conditions -  °F | °C
As of 3:35 PM on Saturday 25 Oct 2014 (Local Time) from KARM Reporting Station
Clear Clear  
Wind Chill: 85°   Ceiling: Unl
Heat Index: 85°   Visibility: 10mi
Dew Point: 57°   Wind: 6mph
Humidity: 38%   Direction: 70°ENE
Pressure: 30.1"   Gusts: NA
Location:  29.4506°N, 96.0068°W
Report Text: KARM 252035Z AUTO 07005KT 10SM CLR 30/14 A3010 RMK AO2 T02950137
Loading
Personal Weather Stations






























Interactive Weather Map
Tropical Storm Tracking
New forecast layout! Learn more

10-Day Weather Forecast

Advertisements
Track Severe Weather on mobile